createdAt,value
2022-10-17T00:01:37.822Z,0.60
2022-10-17T00:04:23.386Z,0.70
2022-10-17T00:07:08.879Z,0.60
2022-10-17T00:09:53.930Z,0.70
2022-10-17T00:12:39.237Z,0.70
2022-10-17T00:15:24.009Z,0.60
2022-10-17T00:18:09.049Z,0.53
2022-10-17T00:20:53.846Z,0.67
2022-10-17T00:23:38.866Z,0.60
2022-10-17T00:26:23.750Z,0.67
2022-10-17T00:29:09.160Z,0.70
2022-10-17T00:31:58.098Z,0.53
2022-10-17T00:34:43.067Z,0.40
2022-10-17T00:37:28.123Z,0.73
2022-10-17T00:40:13.413Z,0.50
2022-10-17T00:42:58.283Z,0.60
2022-10-17T00:45:43.605Z,0.70
2022-10-17T00:48:30.854Z,0.80
2022-10-17T00:51:17.263Z,0.60
2022-10-17T00:54:03.658Z,0.63
2022-10-17T00:56:49.802Z,0.60
2022-10-17T00:59:38.102Z,0.70
2022-10-17T01:02:23.525Z,0.70
2022-10-17T01:05:09.606Z,0.50
2022-10-17T01:07:55.346Z,0.70
2022-10-17T01:11:13.359Z,0.50
2022-10-17T01:14:09.049Z,0.60
2022-10-17T01:17:04.933Z,0.60
2022-10-17T01:20:05.678Z,0.80
2022-10-17T01:23:38.674Z,0.70
2022-10-17T01:26:51.787Z,0.70
2022-10-17T01:29:52.225Z,0.57
2022-10-17T01:33:06.477Z,0.50
2022-10-17T01:36:13.585Z,0.70
2022-10-17T01:39:15.343Z,0.63
2022-10-17T01:42:17.322Z,0.80
2022-10-17T01:45:18.005Z,0.70
2022-10-17T01:48:08.816Z,0.60
2022-10-17T01:51:02.948Z,0.50
2022-10-17T01:54:05.112Z,0.80
2022-10-17T01:56:56.104Z,0.70
2022-10-17T01:59:44.389Z,0.80
2022-10-17T02:02:31.029Z,0.63
2022-10-17T02:05:18.747Z,0.90
2022-10-17T02:08:04.833Z,0.67
2022-10-17T02:11:00.410Z,0.60
2022-10-17T02:14:09.385Z,0.67
2022-10-17T02:17:29.614Z,0.60
2022-10-17T02:20:21.398Z,0.70
2022-10-17T02:23:16.543Z,0.63
2022-10-17T02:26:24.768Z,0.80
2022-10-17T02:29:17.639Z,0.70
2022-10-17T02:32:17.763Z,0.60
2022-10-17T02:35:07.417Z,0.50
2022-10-17T02:37:54.500Z,0.43
2022-10-17T02:40:41.216Z,0.57
2022-10-17T02:43:26.205Z,0.60
2022-10-17T02:46:21.025Z,0.70
2022-10-17T02:49:21.225Z,0.60
2022-10-17T02:52:19.018Z,0.70
2022-10-17T02:55:07.755Z,0.80
2022-10-17T02:58:11.624Z,0.60
2022-10-17T03:00:58.160Z,0.70
2022-10-17T03:03:43.392Z,0.67
2022-10-17T03:06:28.358Z,0.90
2022-10-17T03:09:14.476Z,0.80
2022-10-17T03:11:59.991Z,0.63
2022-10-17T03:14:44.889Z,0.70
2022-10-17T03:17:30.390Z,0.80
2022-10-17T03:20:15.196Z,0.80
2022-10-17T03:23:00.602Z,0.57
2022-10-17T03:25:46.620Z,0.80
2022-10-17T03:28:33.757Z,0.80
2022-10-17T03:31:19.697Z,1.00
2022-10-17T03:34:05.598Z,0.70
2022-10-17T03:36:51.046Z,1.00
2022-10-17T03:39:36.946Z,0.60
2022-10-17T03:42:22.789Z,0.57
2022-10-17T03:45:08.590Z,0.80
2022-10-17T03:47:54.429Z,0.67
2022-10-17T03:50:39.841Z,0.60
2022-10-17T03:53:26.330Z,0.77
2022-10-17T03:56:19.427Z,0.40
2022-10-17T03:59:15.877Z,0.70
2022-10-17T04:02:07.188Z,0.70
2022-10-17T04:04:52.049Z,0.77
2022-10-17T04:07:37.665Z,0.43
2022-10-17T04:10:23.390Z,0.67
2022-10-17T04:13:09.251Z,0.90
2022-10-17T04:15:57.913Z,0.60
2022-10-17T04:18:43.700Z,0.70
2022-10-17T04:21:29.525Z,0.60
2022-10-17T04:24:17.663Z,0.60
2022-10-17T04:27:19.182Z,0.60
2022-10-17T04:30:04.932Z,0.67
2022-10-17T04:32:51.878Z,0.67
2022-10-17T04:35:40.018Z,0.70
2022-10-17T04:38:28.583Z,0.70
2022-10-17T04:41:17.263Z,0.63
2022-10-17T04:44:02.853Z,0.70
2022-10-17T04:46:51.785Z,0.83
2022-10-17T04:49:37.726Z,0.90
2022-10-17T04:52:28.002Z,0.60
2022-10-17T04:55:13.481Z,0.90
2022-10-17T04:57:58.882Z,0.77
2022-10-17T05:00:44.607Z,0.57
2022-10-17T05:03:34.482Z,0.70
2022-10-17T05:06:23.290Z,0.63
2022-10-17T05:09:34.770Z,0.77
2022-10-17T05:12:19.973Z,0.70
2022-10-17T05:15:07.058Z,0.77
2022-10-17T05:17:55.897Z,0.47
2022-10-17T05:20:41.723Z,0.80
2022-10-17T05:23:29.089Z,0.87
2022-10-17T05:26:14.270Z,0.60
2022-10-17T05:29:02.690Z,0.73
2022-10-17T05:31:49.928Z,0.60
2022-10-17T05:34:36.436Z,0.53
2022-10-17T05:37:21.957Z,0.63
2022-10-17T05:40:10.224Z,0.63
2022-10-17T05:42:55.695Z,0.87
2022-10-17T05:45:42.590Z,0.73
2022-10-17T05:48:32.806Z,1.10
2022-10-17T05:51:18.902Z,3.33
2022-10-17T05:54:06.747Z,5.27
2022-10-17T05:56:55.246Z,10.13
2022-10-17T05:59:44.191Z,6.73
2022-10-17T06:02:32.629Z,5.20
2022-10-17T06:05:19.043Z,5.40
2022-10-17T06:08:05.068Z,7.67
2022-10-17T06:10:53.782Z,5.40
2022-10-17T06:13:39.875Z,4.87
2022-10-17T06:16:30.965Z,4.37
2022-10-17T06:19:16.162Z,3.67
2022-10-17T06:22:01.388Z,6.70
2022-10-17T06:24:49.775Z,3.83
2022-10-17T06:27:34.635Z,4.70
2022-10-17T06:30:20.065Z,3.67
2022-10-17T06:33:05.564Z,3.27
2022-10-17T06:35:54.167Z,3.10
2022-10-17T06:38:41.438Z,2.90
2022-10-17T06:41:35.014Z,5.40
2022-10-17T06:44:28.446Z,3.60
2022-10-17T06:47:37.554Z,2.87
2022-10-17T06:50:34.820Z,3.53
2022-10-17T06:53:36.233Z,3.07
2022-10-17T06:56:44.400Z,3.00
2022-10-17T06:59:49.930Z,3.47
2022-10-17T07:02:44.022Z,2.83
2022-10-17T07:05:29.455Z,2.80
2022-10-17T07:08:14.622Z,3.00
2022-10-17T07:11:08.293Z,3.47
2022-10-17T07:13:53.581Z,3.20
2022-10-17T07:16:40.134Z,2.90
2022-10-17T07:19:36.241Z,4.37
2022-10-17T07:22:22.258Z,3.00
2022-10-17T07:25:10.376Z,3.43
2022-10-17T07:28:02.161Z,2.70
2022-10-17T07:30:51.914Z,3.03
2022-10-17T07:33:39.387Z,2.80
2022-10-17T07:36:24.631Z,2.53
2022-10-17T07:39:09.905Z,2.57
2022-10-17T07:41:56.474Z,2.80
2022-10-17T07:44:42.627Z,2.50
2022-10-17T07:47:31.289Z,2.40
2022-10-17T07:50:17.445Z,2.47
2022-10-17T07:53:02.449Z,2.93
2022-10-17T07:55:48.054Z,2.67
2022-10-17T07:58:33.995Z,2.20
2022-10-17T08:01:19.189Z,2.40
2022-10-17T08:04:04.339Z,2.20
2022-10-17T08:06:53.454Z,2.77
2022-10-17T08:09:43.085Z,2.37
2022-10-17T08:12:32.373Z,2.37
2022-10-17T08:15:17.729Z,2.53
2022-10-17T08:18:02.863Z,2.10
2022-10-17T08:20:48.620Z,2.30
2022-10-17T08:23:34.005Z,2.47
2022-10-17T08:26:20.035Z,2.03
2022-10-17T08:29:05.446Z,2.57
2022-10-17T08:31:54.116Z,3.17
2022-10-17T08:34:43.642Z,2.30
2022-10-17T08:37:30.249Z,2.27
2022-10-17T08:40:22.413Z,2.00
2022-10-17T08:43:53.435Z,2.13
2022-10-17T08:46:42.137Z,2.00
2022-10-17T08:49:52.435Z,2.23
2022-10-17T08:52:47.961Z,2.20
2022-10-17T08:55:40.046Z,2.40
2022-10-17T08:58:31.109Z,2.43
2022-10-17T09:01:25.162Z,1.97
2022-10-17T09:04:09.892Z,2.00
2022-10-17T09:07:28.744Z,3.50
2022-10-17T09:10:24.082Z,2.90
2022-10-17T09:13:33.115Z,2.00
2022-10-17T09:16:50.899Z,1.90
2022-10-17T09:19:45.206Z,1.93
2022-10-17T09:25:46.402Z,2.40
2022-10-17T09:28:39.986Z,2.60
2022-10-17T09:31:34.656Z,2.20
2022-10-17T09:34:22.900Z,2.37
2022-10-17T09:37:17.192Z,2.23
2022-10-17T09:40:02.179Z,2.70
2022-10-17T09:42:50.582Z,2.23
2022-10-17T09:45:43.919Z,1.67
2022-10-17T09:48:41.052Z,2.80
2022-10-17T09:51:26.782Z,2.17
2022-10-17T09:54:21.829Z,2.40
2022-10-17T09:57:09.621Z,2.03
2022-10-17T10:00:05.014Z,1.90
2022-10-17T10:03:09.087Z,1.97
2022-10-17T10:06:06.406Z,2.33
2022-10-17T10:09:04.885Z,1.80
2022-10-17T10:11:54.157Z,2.27
2022-10-17T10:14:40.306Z,1.87
2022-10-17T10:17:38.498Z,2.03
2022-10-17T10:20:33.911Z,1.80
2022-10-17T10:23:21.370Z,1.70
2022-10-17T10:26:21.073Z,2.20
2022-10-17T10:29:21.231Z,1.80
2022-10-17T10:32:10.048Z,1.93
2022-10-17T10:35:24.962Z,2.93
2022-10-17T10:38:16.227Z,1.60
2022-10-17T10:41:05.505Z,2.47
2022-10-17T10:43:52.054Z,2.00
2022-10-17T10:46:37.335Z,1.67
2022-10-17T10:49:32.833Z,1.33
2022-10-17T10:52:30.445Z,2.03
2022-10-17T10:55:28.203Z,2.20
2022-10-17T10:58:47.610Z,1.73
2022-10-17T11:02:10.151Z,2.17
2022-10-17T11:05:04.783Z,1.60
2022-10-17T11:08:31.889Z,5.00
2022-10-17T11:11:38.675Z,1.53
2022-10-17T11:14:42.522Z,1.30
2022-10-17T11:17:42.465Z,1.27
2022-10-17T11:20:36.528Z,3.20
2022-10-17T11:23:33.450Z,1.73
2022-10-17T11:26:27.023Z,1.67
2022-10-17T11:29:13.709Z,3.83
2022-10-17T11:32:08.021Z,1.53
2022-10-17T11:35:00.726Z,2.30
2022-10-17T11:37:52.151Z,1.67
2022-10-17T11:40:41.877Z,1.33
2022-10-17T11:43:32.018Z,1.40
2022-10-17T11:46:21.710Z,1.20
2022-10-17T11:49:20.335Z,1.30
2022-10-17T11:52:55.862Z,1.40
2022-10-17T11:55:43.562Z,1.37
2022-10-17T11:58:38.457Z,2.47
2022-10-17T12:01:35.497Z,1.27
2022-10-17T12:04:49.467Z,1.43
2022-10-17T12:07:37.641Z,1.00
2022-10-17T12:10:57.799Z,2.07
2022-10-17T12:13:45.797Z,1.20
2022-10-17T12:16:33.785Z,1.47
2022-10-17T12:19:25.439Z,1.63
2022-10-17T12:22:26.167Z,1.53
2022-10-17T12:25:21.637Z,1.50
2022-10-17T12:28:06.955Z,1.37
2022-10-17T12:30:56.040Z,1.47
2022-10-17T12:33:51.807Z,3.67
2022-10-17T12:36:38.250Z,4.27
2022-10-17T12:39:23.838Z,2.07
2022-10-17T12:42:29.795Z,8.40
2022-10-17T12:45:48.309Z,9.13
2022-10-17T12:48:33.122Z,16.80
2022-10-17T12:51:35.385Z,16.43
2022-10-17T12:54:21.789Z,18.77
2022-10-17T12:57:19.709Z,13.57
2022-10-17T13:00:17.230Z,16.47
2022-10-17T13:03:18.313Z,15.23
2022-10-17T13:06:07.460Z,15.60
2022-10-17T13:09:04.056Z,14.40
2022-10-17T13:11:51.115Z,14.37
2022-10-17T13:14:40.953Z,13.70
2022-10-17T13:17:29.372Z,12.37
2022-10-17T13:20:28.900Z,11.17
2022-10-17T13:23:24.411Z,7.33
2022-10-17T13:26:21.441Z,4.53
2022-10-17T13:29:11.704Z,2.97
2022-10-17T13:32:03.933Z,3.10
2022-10-17T13:35:07.083Z,5.10
2022-10-17T13:37:54.092Z,4.60
2022-10-17T13:40:50.045Z,3.50
2022-10-17T13:43:35.832Z,2.77
2022-10-17T13:46:39.367Z,4.30
2022-10-17T13:49:34.064Z,2.90
2022-10-17T13:52:23.327Z,2.47
2022-10-17T13:55:17.544Z,2.93
2022-10-17T13:58:17.063Z,2.53
2022-10-17T14:01:02.785Z,3.37
2022-10-17T14:03:54.724Z,2.00
2022-10-17T14:06:51.289Z,2.97
2022-10-17T14:09:37.597Z,2.37
2022-10-17T14:12:22.847Z,2.20
2022-10-17T14:15:14.345Z,3.13
2022-10-17T14:18:07.382Z,2.00
2022-10-17T14:24:14.565Z,2.23
2022-10-17T14:27:00.391Z,1.90
2022-10-17T14:29:53.654Z,1.90
2022-10-17T14:32:38.531Z,2.37
2022-10-17T14:35:41.120Z,2.53
2022-10-17T14:38:28.559Z,1.83
2022-10-17T14:41:42.343Z,2.03
2022-10-17T14:44:36.296Z,2.53
2022-10-17T14:47:42.731Z,2.60
2022-10-17T14:50:31.860Z,3.93
2022-10-17T14:53:17.084Z,3.13
2022-10-17T14:56:05.978Z,1.90
2022-10-17T14:58:52.064Z,2.00
2022-10-17T15:01:37.334Z,2.40
2022-10-17T15:04:22.266Z,2.10
2022-10-17T15:07:07.391Z,4.03
2022-10-17T15:09:53.649Z,2.10
2022-10-17T15:12:43.642Z,1.70
2022-10-17T15:15:33.695Z,2.00
2022-10-17T15:18:18.999Z,2.10
2022-10-17T15:21:25.598Z,1.80
2022-10-17T15:24:11.994Z,3.43
2022-10-17T15:26:57.098Z,1.70
2022-10-17T15:29:41.934Z,1.67
2022-10-17T15:32:26.882Z,1.80
2022-10-17T15:35:11.758Z,1.83
2022-10-17T15:37:56.765Z,1.93
2022-10-17T15:40:42.029Z,1.93
2022-10-17T15:43:26.837Z,1.80
2022-10-17T15:46:15.311Z,3.63
2022-10-17T15:49:10.160Z,1.77
2022-10-17T15:51:55.456Z,1.50
2022-10-17T15:54:40.747Z,1.60
2022-10-17T15:57:29.317Z,1.80
2022-10-17T16:00:19.152Z,1.73
2022-10-17T16:03:04.378Z,1.70
2022-10-17T16:05:49.333Z,1.90
2022-10-17T16:08:34.310Z,1.90
2022-10-17T16:11:38.986Z,2.17
2022-10-17T16:14:23.694Z,2.00
2022-10-17T16:17:18.000Z,1.80
2022-10-17T16:20:03.878Z,1.60
2022-10-17T16:22:49.949Z,1.50
2022-10-17T16:25:34.986Z,1.60
2022-10-17T16:28:20.248Z,1.90
2022-10-17T16:31:05.361Z,1.77
2022-10-17T16:33:53.394Z,1.70
2022-10-17T16:36:39.081Z,1.53
2022-10-17T16:39:24.420Z,2.10
2022-10-17T16:42:09.852Z,1.93
2022-10-17T16:44:54.678Z,1.70
2022-10-17T16:47:39.637Z,1.70
2022-10-17T16:50:24.503Z,1.97
2022-10-17T16:53:09.779Z,1.70
2022-10-17T16:56:02.750Z,2.30
2022-10-17T16:58:48.433Z,2.20
2022-10-17T17:01:33.633Z,1.70
2022-10-17T17:04:18.712Z,1.70
2022-10-17T17:07:03.625Z,1.40
2022-10-17T17:09:49.008Z,1.83
2022-10-17T17:12:35.973Z,1.50
2022-10-17T17:15:20.917Z,1.80
2022-10-17T17:18:06.402Z,1.93
2022-10-17T17:20:51.821Z,1.90
2022-10-17T17:23:39.214Z,1.60
2022-10-17T17:26:25.350Z,1.87
2022-10-17T17:29:12.123Z,1.97
2022-10-17T17:31:57.565Z,1.70
2022-10-17T17:34:42.430Z,3.07
2022-10-17T17:37:28.031Z,1.80
2022-10-17T17:40:13.381Z,1.70
2022-10-17T17:42:58.618Z,1.70
2022-10-17T17:45:43.669Z,1.57
2022-10-17T17:48:28.637Z,1.80
2022-10-17T17:51:16.963Z,1.77
2022-10-17T17:54:01.966Z,1.70
2022-10-17T17:56:46.851Z,1.67
2022-10-17T17:59:32.000Z,1.60
2022-10-17T18:02:16.897Z,1.70
2022-10-17T18:05:02.384Z,2.00
2022-10-17T18:07:47.803Z,1.60
2022-10-17T18:10:32.842Z,1.67
2022-10-17T18:13:17.985Z,1.80
2022-10-17T18:16:04.169Z,1.53
2022-10-17T18:18:49.153Z,1.57
2022-10-17T18:21:35.249Z,1.90
2022-10-17T18:24:20.176Z,2.23
2022-10-17T18:27:05.218Z,1.80
2022-10-17T18:29:51.110Z,2.00
2022-10-17T18:32:36.351Z,1.47
2022-10-17T18:35:21.981Z,1.73
2022-10-17T18:38:07.162Z,1.97
2022-10-17T18:41:02.225Z,1.90
2022-10-17T18:43:49.023Z,1.60
2022-10-17T18:46:40.086Z,1.93
2022-10-17T18:49:25.620Z,1.80
2022-10-17T18:52:12.081Z,2.17
2022-10-17T18:54:57.479Z,2.03
2022-10-17T18:57:42.721Z,1.47
2022-10-17T19:00:27.817Z,2.10
2022-10-17T19:03:13.049Z,1.90
2022-10-17T19:06:07.349Z,2.10
2022-10-17T19:08:52.730Z,1.70
2022-10-17T19:11:38.745Z,1.93
2022-10-17T19:14:23.965Z,2.00
2022-10-17T19:17:08.940Z,1.90
2022-10-17T19:19:55.024Z,2.17
2022-10-17T19:22:40.200Z,2.10
2022-10-17T19:25:25.805Z,2.10
2022-10-17T19:28:10.928Z,1.80
2022-10-17T19:30:55.842Z,1.97
2022-10-17T19:33:41.056Z,1.87
2022-10-17T19:36:32.285Z,2.07
2022-10-17T19:39:20.897Z,1.90
2022-10-17T19:42:07.075Z,2.30
2022-10-17T19:44:52.256Z,1.97
2022-10-17T19:47:38.454Z,2.23
2022-10-17T19:50:23.800Z,2.17
2022-10-17T19:53:08.678Z,1.90
2022-10-17T19:55:53.694Z,2.07
2022-10-17T19:58:46.282Z,2.10
2022-10-17T20:01:34.707Z,1.93
2022-10-17T20:04:19.784Z,1.90
2022-10-17T20:07:04.788Z,2.23
2022-10-17T20:09:49.759Z,2.13
2022-10-17T20:12:35.052Z,2.00
2022-10-17T20:15:19.938Z,2.00
2022-10-17T20:18:05.628Z,1.97
2022-10-17T20:20:50.826Z,2.33
2022-10-17T20:23:36.621Z,2.00
2022-10-17T20:26:37.049Z,2.20
2022-10-17T20:29:23.996Z,2.10
2022-10-17T20:32:08.940Z,1.97
2022-10-17T20:34:54.450Z,2.53
2022-10-17T20:37:42.374Z,2.23
2022-10-17T20:40:35.807Z,2.03
2022-10-17T20:43:20.910Z,2.60
2022-10-17T20:46:22.758Z,2.00
2022-10-17T20:49:11.186Z,2.23
2022-10-17T20:51:56.368Z,2.30
2022-10-17T20:54:41.518Z,2.40
2022-10-17T20:57:26.568Z,1.80
2022-10-17T21:00:12.098Z,2.40
2022-10-17T21:02:57.195Z,2.63
2022-10-17T21:05:42.446Z,1.93
2022-10-17T21:08:27.416Z,2.03
2022-10-17T21:11:16.011Z,2.00
2022-10-17T21:14:03.584Z,2.03
2022-10-17T21:16:48.982Z,1.90
2022-10-17T21:19:34.092Z,2.30
2022-10-17T21:22:19.138Z,2.67
2022-10-17T21:25:04.135Z,2.37
2022-10-17T21:27:52.358Z,1.80
2022-10-17T21:30:37.202Z,2.37
2022-10-17T21:33:22.563Z,2.40
2022-10-17T21:36:08.314Z,2.53
2022-10-17T21:38:55.221Z,2.50
2022-10-17T21:41:41.052Z,2.30
2022-10-17T21:44:26.905Z,2.30
2022-10-17T21:47:14.790Z,2.30
2022-10-17T21:49:59.735Z,2.60
2022-10-17T21:52:44.574Z,2.40
2022-10-17T21:55:29.474Z,2.50
2022-10-17T21:58:14.688Z,2.70
2022-10-17T22:01:38.410Z,2.73
2022-10-17T22:04:23.675Z,2.33
2022-10-17T22:07:08.935Z,2.73
2022-10-17T22:09:53.669Z,2.67
2022-10-17T22:12:38.587Z,2.87
2022-10-17T22:15:23.406Z,2.87
2022-10-17T22:18:08.358Z,2.50
2022-10-17T22:20:53.522Z,2.10
2022-10-17T22:23:39.210Z,2.90
2022-10-17T22:26:26.135Z,2.50
2022-10-17T22:29:11.851Z,2.90
2022-10-17T22:31:57.117Z,2.57
2022-10-17T22:34:42.038Z,2.40
2022-10-17T22:37:26.913Z,2.17
2022-10-17T22:40:12.082Z,3.07
2022-10-17T22:42:57.204Z,3.77
2022-10-17T22:45:42.333Z,2.80
2022-10-17T22:48:28.663Z,2.93
2022-10-17T22:51:14.185Z,2.93
2022-10-17T22:53:59.493Z,2.30
2022-10-17T22:56:44.431Z,2.30
2022-10-17T22:59:29.392Z,3.50
2022-10-17T23:02:14.450Z,2.37
2022-10-17T23:05:00.841Z,2.50
2022-10-17T23:07:46.077Z,2.47
2022-10-17T23:10:31.076Z,2.93
2022-10-17T23:13:16.497Z,2.43
2022-10-17T23:16:01.631Z,2.47
2022-10-17T23:18:46.887Z,2.50
2022-10-17T23:21:31.577Z,2.53
2022-10-17T23:24:16.478Z,2.80
2022-10-17T23:27:01.898Z,3.40
2022-10-17T23:29:46.930Z,2.63
2022-10-17T23:32:32.203Z,3.03
2022-10-17T23:35:17.648Z,2.70
2022-10-17T23:38:03.298Z,2.70
2022-10-17T23:40:48.203Z,3.17
2022-10-17T23:43:34.206Z,2.70
2022-10-17T23:46:19.095Z,2.70
2022-10-17T23:49:05.561Z,2.70
2022-10-17T23:51:50.546Z,2.63
2022-10-17T23:54:35.535Z,2.57
2022-10-17T23:57:20.904Z,3.10
